createdAt,value
2017-09-28T00:04:09.619Z,81.20
2017-09-28T00:06:35.899Z,80.80
2017-09-28T00:09:03.171Z,80.10
2017-09-28T00:11:32.540Z,79.70
2017-09-28T00:14:01.579Z,79.90
2017-09-28T00:16:27.839Z,79.90
2017-09-28T00:18:54.086Z,80.10
2017-09-28T00:21:21.376Z,80.30
2017-09-28T00:23:49.607Z,80.50
2017-09-28T00:26:15.838Z,80.60
2017-09-28T00:28:43.094Z,80.60
2017-09-28T00:31:09.351Z,80.10
2017-09-28T00:33:36.355Z,80.30
2017-09-28T00:36:04.819Z,80.20
2017-09-28T00:38:31.966Z,80.20
2017-09-28T00:40:59.307Z,80.30
2017-09-28T00:43:25.570Z,80.50
2017-09-28T00:45:51.808Z,80.50
2017-09-28T00:48:18.090Z,80.90
2017-09-28T00:50:44.365Z,80.70
2017-09-28T00:53:11.985Z,80.30
2017-09-28T00:55:38.227Z,80.50
2017-09-28T00:58:05.441Z,79.80
2017-09-28T01:00:31.699Z,80.00
2017-09-28T01:02:57.955Z,79.20
2017-09-28T01:05:24.235Z,79.20
2017-09-28T01:07:51.143Z,78.70
2017-09-28T01:10:19.640Z,79.20
2017-09-28T01:12:45.939Z,79.20
2017-09-28T01:15:12.999Z,79.50
2017-09-28T01:17:47.753Z,79.60
2017-09-28T01:20:19.809Z,79.70
2017-09-28T01:22:46.046Z,79.60
2017-09-28T01:25:12.299Z,79.50
2017-09-28T01:27:38.581Z,79.70
2017-09-28T01:30:04.823Z,79.50
2017-09-28T01:32:31.063Z,79.50
2017-09-28T01:34:57.374Z,79.60
2017-09-28T01:37:25.987Z,79.30
2017-09-28T01:39:52.234Z,79.30
2017-09-28T01:42:18.520Z,79.40
2017-09-28T01:44:44.758Z,79.20
2017-09-28T01:47:11.007Z,79.30
2017-09-28T01:49:38.003Z,79.30
2017-09-28T01:52:04.427Z,79.50
2017-09-28T01:54:30.703Z,78.30
2017-09-28T01:56:58.843Z,78.20
2017-09-28T01:59:25.194Z,78.30
2017-09-28T02:01:51.458Z,78.50
2017-09-28T02:04:17.766Z,78.90
2017-09-28T02:06:44.026Z,79.10
2017-09-28T02:09:10.275Z,79.20
2017-09-28T02:11:36.550Z,79.50
2017-09-28T02:14:02.801Z,79.20
2017-09-28T02:16:29.062Z,79.30
2017-09-28T02:21:28.390Z,79.60
2017-09-28T02:23:55.326Z,79.70
2017-09-28T02:26:21.567Z,79.80
2017-09-28T02:28:47.795Z,79.90
2017-09-28T02:31:14.046Z,80.10
2017-09-28T02:33:40.290Z,79.60
2017-09-28T02:36:06.550Z,78.90
2017-09-28T02:38:33.611Z,78.60
2017-09-28T02:40:59.858Z,78.80
2017-09-28T02:43:26.082Z,79.20
2017-09-28T02:45:54.145Z,79.20
2017-09-28T02:48:20.414Z,79.50
2017-09-28T02:50:46.653Z,79.90
2017-09-28T02:53:12.915Z,79.80
2017-09-28T02:55:39.157Z,79.70
2017-09-28T02:58:05.402Z,79.80
2017-09-28T03:00:32.583Z,80.00
2017-09-28T03:02:58.818Z,79.70
2017-09-28T03:05:25.054Z,79.80
2017-09-28T03:07:51.358Z,80.30
2017-09-28T03:10:17.595Z,80.70
2017-09-28T03:12:43.830Z,79.90
2017-09-28T03:15:10.096Z,80.60
2017-09-28T03:17:36.351Z,80.50
2017-09-28T03:20:03.349Z,80.90
2017-09-28T03:22:29.615Z,80.80
2017-09-28T03:24:55.862Z,80.90
2017-09-28T03:27:22.119Z,80.50
2017-09-28T03:29:48.384Z,80.50
2017-09-28T03:32:14.651Z,79.90
2017-09-28T03:34:41.664Z,80.00
2017-09-28T03:37:07.952Z,79.90
2017-09-28T03:39:34.202Z,79.80
2017-09-28T03:42:00.449Z,80.00
2017-09-28T03:44:26.699Z,80.00
2017-09-28T03:46:52.953Z,79.60
2017-09-28T03:49:19.954Z,78.10
2017-09-28T03:51:46.230Z,78.00
2017-09-28T03:54:12.487Z,78.20
2017-09-28T03:56:39.454Z,78.80
2017-09-28T03:59:05.729Z,78.60
2017-09-28T04:01:33.944Z,79.10
2017-09-28T04:04:00.191Z,79.20
2017-09-28T04:06:26.451Z,79.60
2017-09-28T04:08:52.689Z,79.80
2017-09-28T04:11:18.923Z,79.60
2017-09-28T04:13:45.186Z,79.40
2017-09-28T04:16:12.171Z,79.50
2017-09-28T04:18:38.438Z,79.40
2017-09-28T04:21:04.707Z,79.40
2017-09-28T04:23:30.959Z,79.50
2017-09-28T04:25:57.228Z,79.50
2017-09-28T04:28:23.623Z,79.40
2017-09-28T04:30:49.879Z,79.70
2017-09-28T04:33:16.142Z,79.50
2017-09-28T04:35:42.415Z,79.50
2017-09-28T04:38:08.703Z,79.20
2017-09-28T04:40:35.795Z,79.30
2017-09-28T04:43:02.102Z,79.20
2017-09-28T04:45:28.347Z,79.50
2017-09-28T04:47:55.291Z,79.50
2017-09-28T04:50:21.570Z,79.50
2017-09-28T04:52:47.806Z,79.10
2017-09-28T04:55:14.047Z,78.90
2017-09-28T04:57:40.344Z,78.70
2017-09-28T05:00:06.590Z,78.70
2017-09-28T05:02:32.990Z,79.20
2017-09-28T05:04:59.238Z,78.80
2017-09-28T05:07:25.510Z,78.90
2017-09-28T05:09:51.744Z,79.00
2017-09-28T05:12:18.018Z,78.60
2017-09-28T05:14:44.270Z,78.90
2017-09-28T05:17:10.502Z,77.90
2017-09-28T05:19:36.759Z,78.00
2017-09-28T05:22:03.035Z,78.50
2017-09-28T05:24:30.025Z,77.60
2017-09-28T05:26:56.481Z,77.60
2017-09-28T05:29:22.739Z,78.10
2017-09-28T05:31:49.080Z,78.60
2017-09-28T05:34:15.531Z,78.30
2017-09-28T05:36:42.575Z,78.70
2017-09-28T05:39:08.851Z,78.60
2017-09-28T05:41:35.142Z,78.50
2017-09-28T05:44:01.415Z,78.60
2017-09-28T05:46:27.682Z,78.70
2017-09-28T05:48:53.985Z,78.90
2017-09-28T05:51:20.250Z,79.00
2017-09-28T05:53:46.482Z,79.10
2017-09-28T05:56:12.781Z,79.10
2017-09-28T05:58:39.035Z,79.20
2017-09-28T06:01:05.287Z,79.10
2017-09-28T06:03:31.654Z,79.20
2017-09-28T06:05:57.919Z,79.40
2017-09-28T06:08:24.171Z,79.20
2017-09-28T06:10:50.450Z,78.80
2017-09-28T06:13:16.694Z,78.60
2017-09-28T06:15:42.939Z,78.40
2017-09-28T06:18:09.234Z,79.00
2017-09-28T06:20:35.481Z,79.50
2017-09-28T06:23:01.728Z,79.30
2017-09-28T06:25:28.027Z,79.50
2017-09-28T06:27:54.274Z,79.40
2017-09-28T06:30:20.522Z,79.50
2017-09-28T06:32:46.783Z,79.80
2017-09-28T06:35:13.059Z,79.80
2017-09-28T06:37:39.298Z,79.80
2017-09-28T06:40:06.576Z,79.90
2017-09-28T06:42:32.807Z,80.00
2017-09-28T06:44:59.071Z,79.90
2017-09-28T06:47:25.354Z,80.30
2017-09-28T06:49:51.605Z,80.00
2017-09-28T06:52:17.907Z,80.10
2017-09-28T06:54:44.192Z,79.90
2017-09-28T06:57:10.462Z,79.80
2017-09-28T06:59:36.690Z,79.30
2017-09-28T07:02:02.989Z,79.30
2017-09-28T07:04:29.367Z,79.50
2017-09-28T07:06:55.599Z,79.50
2017-09-28T07:09:21.894Z,79.50
2017-09-28T07:11:48.135Z,79.30
2017-09-28T07:14:14.366Z,79.20
2017-09-28T07:16:41.476Z,79.50
2017-09-28T07:19:07.751Z,79.20
2017-09-28T07:21:33.999Z,79.40
2017-09-28T07:24:00.259Z,78.90
2017-09-28T07:26:26.503Z,79.20
2017-09-28T07:28:53.522Z,79.40
2017-09-28T07:31:19.805Z,79.60
2017-09-28T07:33:46.063Z,79.70
2017-09-28T07:36:12.314Z,79.40
2017-09-28T07:38:38.595Z,79.20
2017-09-28T07:41:04.847Z,79.40
2017-09-28T07:43:31.096Z,79.40
2017-09-28T07:45:57.362Z,79.10
2017-09-28T07:48:23.625Z,79.40
2017-09-28T07:50:49.856Z,78.10
2017-09-28T07:53:16.134Z,79.10
2017-09-28T07:55:42.364Z,79.40
2017-09-28T07:58:08.601Z,79.40
2017-09-28T08:00:34.856Z,79.40
2017-09-28T08:03:01.128Z,79.30
2017-09-28T08:05:27.623Z,79.20
2017-09-28T08:07:53.882Z,78.00
2017-09-28T08:10:20.123Z,78.70
2017-09-28T08:12:46.353Z,78.90
2017-09-28T08:15:12.626Z,78.90
2017-09-28T08:17:38.870Z,79.10
2017-09-28T08:20:05.098Z,78.90
2017-09-28T08:22:31.362Z,78.70
2017-09-28T08:24:57.674Z,78.50
2017-09-28T08:27:23.910Z,79.40
2017-09-28T08:29:59.167Z,78.20
2017-09-28T08:32:25.447Z,78.20
2017-09-28T08:34:51.682Z,78.60
2017-09-28T08:37:17.938Z,78.30
2017-09-28T08:39:44.236Z,78.30
2017-09-28T08:42:10.491Z,78.40
2017-09-28T08:44:36.822Z,78.60
2017-09-28T08:47:10.011Z,78.60
2017-09-28T08:49:36.286Z,78.40
2017-09-28T08:52:02.578Z,78.60
2017-09-28T08:54:28.851Z,78.60
2017-09-28T08:56:55.117Z,79.00
2017-09-28T08:59:21.384Z,78.70
2017-09-28T09:01:47.685Z,78.60
2017-09-28T09:04:13.987Z,78.60
2017-09-28T09:06:40.339Z,78.40
2017-09-28T09:09:06.622Z,78.50
2017-09-28T09:11:32.874Z,78.50
2017-09-28T09:13:59.158Z,78.70
2017-09-28T09:16:25.381Z,78.60
2017-09-28T09:18:51.625Z,78.50
2017-09-28T09:21:17.909Z,78.30
2017-09-28T09:23:44.150Z,78.40
2017-09-28T09:26:10.990Z,78.70
2017-09-28T09:28:37.231Z,78.70
2017-09-28T09:31:04.216Z,78.70
2017-09-28T09:33:30.453Z,78.60
2017-09-28T09:35:56.718Z,79.00
2017-09-28T09:38:22.945Z,79.10
2017-09-28T09:40:49.194Z,79.00
2017-09-28T09:43:15.466Z,78.90
2017-09-28T09:45:41.718Z,79.10
2017-09-28T09:48:07.958Z,78.50
2017-09-28T09:50:34.238Z,78.70
2017-09-28T09:53:01.212Z,79.00
2017-09-28T09:55:27.602Z,78.90
2017-09-28T09:57:53.861Z,78.70
2017-09-28T10:00:20.107Z,78.20
2017-09-28T10:02:46.342Z,78.10
2017-09-28T10:05:12.593Z,78.20
2017-09-28T10:07:44.682Z,77.90
2017-09-28T10:10:15.952Z,78.40
2017-09-28T10:12:43.967Z,78.60
2017-09-28T10:15:15.790Z,78.90
2017-09-28T10:17:42.054Z,78.90
2017-09-28T10:20:08.322Z,78.50
2017-09-28T10:22:34.649Z,78.30
2017-09-28T10:25:00.899Z,78.30
2017-09-28T10:27:27.142Z,78.10
2017-09-28T10:29:53.409Z,77.50
2017-09-28T10:32:19.642Z,77.60
2017-09-28T10:34:45.875Z,77.30
2017-09-28T10:37:12.150Z,77.50
2017-09-28T10:39:38.585Z,77.30
2017-09-28T10:42:05.762Z,77.40
2017-09-28T10:44:32.751Z,77.70
2017-09-28T10:46:59.019Z,77.60
2017-09-28T10:49:25.270Z,77.80
2017-09-28T10:51:52.270Z,78.10
2017-09-28T10:54:18.522Z,78.20
2017-09-28T10:56:44.773Z,78.00
2017-09-28T10:59:11.056Z,77.80
2017-09-28T11:01:37.306Z,77.70
2017-09-28T11:04:03.557Z,78.10
2017-09-28T11:06:29.842Z,78.30
2017-09-28T11:08:56.134Z,78.40
2017-09-28T11:11:22.370Z,78.70
2017-09-28T11:13:48.615Z,78.20
2017-09-28T11:16:14.890Z,78.00
2017-09-28T11:18:41.150Z,78.20
2017-09-28T11:21:07.402Z,78.50
2017-09-28T11:23:34.405Z,79.10
2017-09-28T11:26:00.671Z,78.50
2017-09-28T11:28:26.932Z,78.40
2017-09-28T11:30:54.728Z,79.40
2017-09-28T11:33:20.958Z,78.70
2017-09-28T11:35:47.234Z,78.70
2017-09-28T11:38:13.465Z,78.90
2017-09-28T11:40:39.719Z,79.00
2017-09-28T11:43:05.987Z,79.00
2017-09-28T11:45:33.169Z,78.60
2017-09-28T11:47:59.438Z,78.40
2017-09-28T11:50:26.102Z,78.60
2017-09-28T11:52:52.338Z,78.10
2017-09-28T11:55:18.582Z,78.30
2017-09-28T11:57:45.047Z,78.50
2017-09-28T12:00:11.350Z,78.10
2017-09-28T12:02:37.599Z,77.60
2017-09-28T12:05:03.875Z,77.40
2017-09-28T12:07:30.105Z,77.70
2017-09-28T12:09:57.369Z,77.80
2017-09-28T12:12:23.637Z,78.10
2017-09-28T12:14:49.871Z,77.90
2017-09-28T12:17:16.114Z,77.90
2017-09-28T12:19:42.388Z,78.00
2017-09-28T12:22:08.618Z,78.30
2017-09-28T12:24:34.851Z,78.40
2017-09-28T12:27:01.168Z,78.20
2017-09-28T12:29:27.418Z,78.40
2017-09-28T12:31:53.954Z,78.50
2017-09-28T12:34:20.283Z,78.60
2017-09-28T12:36:47.242Z,78.70
2017-09-28T12:39:14.143Z,78.70
2017-09-28T12:41:40.434Z,78.60
2017-09-28T12:44:06.671Z,78.70
2017-09-28T12:46:33.410Z,79.20
2017-09-28T12:48:59.726Z,79.50
2017-09-28T12:51:25.986Z,79.30
2017-09-28T12:53:52.234Z,79.30
2017-09-28T12:56:18.587Z,79.20
2017-09-28T12:58:44.827Z,78.50
2017-09-28T13:01:11.079Z,78.70
2017-09-28T13:03:38.331Z,78.80
2017-09-28T13:06:04.564Z,78.90
2017-09-28T13:08:30.910Z,78.90
2017-09-28T13:10:58.135Z,79.00
2017-09-28T13:13:25.262Z,79.10
2017-09-28T13:15:51.490Z,79.00
2017-09-28T13:18:17.774Z,79.00
2017-09-28T13:20:44.024Z,79.00
2017-09-28T13:23:10.251Z,78.90
2017-09-28T13:25:36.535Z,78.90
2017-09-28T13:28:02.770Z,79.10
2017-09-28T13:30:29.012Z,79.10
2017-09-28T13:32:55.449Z,79.30
2017-09-28T13:35:21.910Z,79.20
2017-09-28T13:37:48.138Z,79.40
2017-09-28T13:40:14.426Z,79.70
2017-09-28T13:42:41.095Z,79.90
2017-09-28T13:45:08.248Z,79.60
2017-09-28T13:47:34.529Z,79.10
2017-09-28T13:50:00.774Z,78.90
2017-09-28T13:52:27.167Z,78.80
2017-09-28T13:54:53.414Z,79.00
2017-09-28T13:57:19.650Z,78.90
2017-09-28T13:59:45.894Z,78.90
2017-09-28T14:02:12.719Z,79.10
2017-09-28T14:04:38.951Z,79.40
2017-09-28T14:07:05.187Z,79.40
2017-09-28T14:09:32.351Z,79.80
2017-09-28T14:11:58.674Z,79.90
2017-09-28T14:14:24.922Z,79.70
2017-09-28T14:16:51.182Z,79.80
2017-09-28T14:19:18.143Z,80.20
2017-09-28T14:21:44.394Z,80.20
2017-09-28T14:24:10.714Z,79.90
2017-09-28T14:26:36.946Z,79.80
2017-09-28T14:29:03.198Z,80.20
2017-09-28T14:31:29.458Z,80.00
2017-09-28T14:33:55.694Z,79.70
2017-09-28T14:36:21.960Z,79.50
2017-09-28T14:38:48.235Z,79.50
2017-09-28T14:41:14.462Z,79.40
2017-09-28T14:43:40.710Z,80.10
2017-09-28T14:46:07.158Z,80.10
2017-09-28T14:48:33.386Z,79.90
2017-09-28T14:50:59.618Z,80.00
2017-09-28T14:53:26.638Z,80.30
2017-09-28T14:55:52.862Z,80.20
2017-09-28T14:58:19.109Z,80.10
2017-09-28T15:00:45.921Z,79.70
2017-09-28T15:03:12.147Z,80.10
2017-09-28T15:05:38.406Z,79.90
2017-09-28T15:08:07.762Z,79.70
2017-09-28T15:10:35.851Z,79.80
2017-09-28T15:13:02.468Z,79.80
2017-09-28T15:15:30.573Z,79.60
2017-09-28T15:17:57.818Z,79.40
2017-09-28T15:20:24.274Z,79.60
2017-09-28T15:22:50.715Z,79.70
2017-09-28T15:25:18.778Z,79.70
2017-09-28T15:27:46.051Z,79.60
2017-09-28T15:30:13.509Z,79.80
2017-09-28T15:32:39.895Z,79.80
2017-09-28T15:35:06.298Z,79.80
2017-09-28T15:37:33.634Z,79.80
2017-09-28T15:40:01.145Z,79.40
2017-09-28T15:42:30.296Z,79.60
2017-09-28T15:44:56.595Z,79.40
2017-09-28T15:47:22.854Z,79.70
2017-09-28T15:49:49.081Z,80.00
2017-09-28T15:52:15.342Z,80.00
2017-09-28T15:54:41.597Z,79.80
2017-09-28T15:57:08.673Z,80.30
2017-09-28T15:59:35.094Z,80.10
2017-09-28T16:02:01.451Z,80.60
2017-09-28T16:04:28.107Z,80.70
2017-09-28T16:06:54.536Z,80.60
2017-09-28T16:09:20.927Z,80.50
2017-09-28T16:11:47.312Z,80.40
2017-09-28T16:14:13.862Z,80.30
2017-09-28T16:16:40.268Z,80.10
2017-09-28T16:19:13.507Z,80.00
2017-09-28T16:21:39.742Z,79.80
2017-09-28T16:24:06.012Z,80.00
2017-09-28T16:26:32.270Z,79.80
2017-09-28T16:28:58.505Z,79.40
2017-09-28T16:31:24.810Z,79.80
2017-09-28T16:33:51.154Z,79.70
2017-09-28T16:36:17.387Z,79.90
2017-09-28T16:38:43.692Z,80.10
2017-09-28T16:41:10.075Z,79.80
2017-09-28T16:43:36.318Z,79.70
2017-09-28T16:46:02.568Z,79.80
2017-09-28T16:48:29.923Z,80.10
2017-09-28T16:50:56.158Z,80.00
2017-09-28T16:53:23.250Z,80.30
2017-09-28T16:55:49.550Z,80.20
2017-09-28T16:58:15.790Z,81.20
2017-09-28T17:00:42.037Z,80.50
2017-09-28T17:03:08.279Z,80.60
2017-09-28T17:05:34.506Z,80.90
2017-09-28T17:08:00.759Z,80.80
2017-09-28T17:10:27.212Z,80.70
2017-09-28T17:12:53.458Z,80.50
2017-09-28T17:15:19.767Z,80.60
2017-09-28T17:17:46.098Z,80.60
2017-09-28T17:20:12.347Z,81.00
2017-09-28T17:22:38.623Z,80.90
2017-09-28T17:25:05.662Z,81.00
2017-09-28T17:27:32.658Z,80.70
2017-09-28T17:29:59.645Z,81.50
2017-09-28T17:32:25.911Z,80.70
2017-09-28T17:34:52.139Z,80.90
2017-09-28T17:37:18.382Z,81.20
2017-09-28T17:39:44.638Z,81.20
2017-09-28T17:42:11.854Z,81.40
2017-09-28T17:44:38.104Z,81.30
2017-09-28T17:47:04.412Z,81.40
2017-09-28T17:49:30.643Z,81.40
2017-09-28T17:51:56.897Z,81.60
2017-09-28T17:54:23.218Z,81.70
2017-09-28T17:56:49.563Z,81.80
2017-09-28T17:59:15.796Z,81.80
2017-09-28T18:01:42.090Z,81.80
2017-09-28T18:04:08.343Z,81.90
2017-09-28T18:06:36.176Z,82.50
2017-09-28T18:09:02.454Z,81.90
2017-09-28T18:11:28.922Z,81.80
2017-09-28T18:13:55.875Z,81.70
2017-09-28T18:16:22.362Z,81.70
2017-09-28T18:18:48.682Z,81.70
2017-09-28T18:21:14.960Z,82.10
2017-09-28T18:23:41.309Z,81.90
2017-09-28T18:26:07.649Z,81.70
2017-09-28T18:28:33.970Z,81.40
2017-09-28T18:31:00.402Z,81.20
2017-09-28T18:33:26.715Z,81.50
2017-09-28T18:35:53.079Z,81.30
2017-09-28T18:38:19.390Z,81.50
2017-09-28T18:40:45.708Z,81.90
2017-09-28T18:43:12.047Z,81.40
2017-09-28T18:45:39.178Z,82.10
2017-09-28T18:48:05.495Z,81.40
2017-09-28T18:50:32.566Z,81.30
2017-09-28T18:52:58.913Z,81.20
2017-09-28T18:55:25.377Z,81.30
2017-09-28T18:57:52.161Z,81.40
2017-09-28T19:00:18.520Z,81.40
2017-09-28T19:02:44.902Z,81.50
2017-09-28T19:05:12.000Z,81.50
2017-09-28T19:07:38.548Z,81.30
2017-09-28T19:10:05.638Z,81.90
2017-09-28T19:12:32.158Z,82.10
2017-09-28T19:14:59.234Z,81.70
2017-09-28T19:17:25.665Z,81.70
2017-09-28T19:19:51.945Z,81.90
2017-09-28T19:22:18.248Z,81.80
2017-09-28T19:24:45.294Z,82.10
2017-09-28T19:27:11.661Z,81.90
2017-09-28T19:29:38.024Z,82.00
2017-09-28T19:32:05.351Z,82.20
2017-09-28T19:34:31.702Z,82.20
2017-09-28T19:36:57.970Z,82.00
2017-09-28T19:39:25.119Z,82.20
2017-09-28T19:41:51.439Z,81.80
2017-09-28T19:44:17.796Z,81.90
2017-09-28T19:46:44.115Z,82.10
2017-09-28T19:49:10.461Z,82.70
2017-09-28T19:51:37.578Z,82.30
2017-09-28T19:54:03.937Z,82.20
2017-09-28T19:56:31.178Z,82.50
2017-09-28T19:58:58.257Z,82.30
2017-09-28T20:01:24.575Z,82.30
2017-09-28T20:03:50.926Z,82.40
2017-09-28T20:06:17.981Z,82.10
2017-09-28T20:08:44.275Z,82.10
2017-09-28T20:11:10.581Z,81.90
2017-09-28T20:13:36.901Z,81.80
2017-09-28T20:16:03.146Z,81.90
2017-09-28T20:18:29.548Z,82.00
2017-09-28T20:20:56.576Z,82.20
2017-09-28T20:23:22.912Z,82.10
2017-09-28T20:25:49.191Z,82.40
2017-09-28T20:28:15.510Z,82.40
2017-09-28T20:30:41.771Z,82.50
2017-09-28T20:33:15.247Z,82.60
2017-09-28T20:35:41.610Z,82.70
2017-09-28T20:38:07.926Z,83.00
2017-09-28T20:40:35.335Z,83.00
2017-09-28T20:43:01.714Z,82.80
2017-09-28T20:45:27.960Z,82.80
2017-09-28T20:47:54.302Z,82.80
2017-09-28T20:50:21.558Z,82.80
2017-09-28T20:52:47.795Z,82.70
2017-09-28T20:55:14.050Z,83.00
2017-09-28T20:57:40.487Z,83.00
2017-09-28T21:00:06.710Z,83.00
2017-09-28T21:02:33.195Z,83.00
2017-09-28T21:04:59.528Z,82.90
2017-09-28T21:07:25.786Z,83.00
2017-09-28T21:09:52.027Z,83.10
2017-09-28T21:12:18.396Z,83.00
2017-09-28T21:14:45.337Z,83.00
2017-09-28T21:17:11.582Z,83.00
2017-09-28T21:19:38.222Z,83.10
2017-09-28T21:22:05.203Z,83.10
2017-09-28T21:24:31.456Z,83.00
2017-09-28T21:26:57.855Z,83.10
2017-09-28T21:29:25.843Z,83.30
2017-09-28T21:31:52.081Z,83.20
2017-09-28T21:34:18.378Z,83.30
2017-09-28T21:36:45.346Z,83.30
2017-09-28T21:39:11.593Z,83.20
2017-09-28T21:41:38.845Z,83.20
2017-09-28T21:44:05.106Z,83.30
2017-09-28T21:46:31.430Z,83.20
2017-09-28T21:48:57.766Z,83.30
2017-09-28T21:51:24.019Z,84.00
2017-09-28T21:53:50.290Z,83.50
2017-09-28T21:56:16.570Z,83.50
2017-09-28T21:58:42.830Z,83.40
2017-09-28T22:01:09.822Z,83.60
2017-09-28T22:03:43.079Z,83.40
2017-09-28T22:06:10.090Z,83.60
2017-09-28T22:08:36.334Z,83.60
2017-09-28T22:11:02.666Z,83.60
2017-09-28T22:13:29.026Z,83.60
2017-09-28T22:15:56.402Z,83.50
2017-09-28T22:18:22.830Z,83.40
2017-09-28T22:20:49.202Z,83.40
2017-09-28T22:23:15.443Z,83.40
2017-09-28T22:25:41.720Z,83.40
2017-09-28T22:28:07.968Z,83.40
2017-09-28T22:30:35.202Z,83.40
2017-09-28T22:33:01.523Z,83.40
2017-09-28T22:35:27.834Z,83.30
2017-09-28T22:37:54.070Z,83.30
2017-09-28T22:40:21.827Z,83.40
2017-09-28T22:42:48.197Z,83.30
2017-09-28T22:45:14.564Z,83.00
2017-09-28T22:47:40.931Z,83.50
2017-09-28T22:50:07.300Z,83.50
2017-09-28T22:52:33.648Z,83.60
2017-09-28T22:55:00.030Z,83.70
2017-09-28T22:57:26.352Z,83.70
2017-09-28T22:59:52.682Z,83.60
2017-09-28T23:02:18.926Z,83.50
2017-09-28T23:04:45.162Z,83.50
2017-09-28T23:07:11.435Z,83.70
2017-09-28T23:09:38.434Z,83.70
2017-09-28T23:12:04.721Z,83.50
2017-09-28T23:14:31.474Z,83.50
2017-09-28T23:16:57.838Z,83.90
2017-09-28T23:19:24.098Z,83.70
2017-09-28T23:21:51.186Z,83.60
2017-09-28T23:24:17.430Z,83.30
2017-09-28T23:26:43.662Z,83.40
2017-09-28T23:29:09.907Z,83.40
2017-09-28T23:31:36.178Z,83.20
2017-09-28T23:34:02.487Z,83.30
2017-09-28T23:36:28.731Z,83.00
2017-09-28T23:38:55.011Z,83.00
2017-09-28T23:41:21.251Z,83.30
2017-09-28T23:43:47.568Z,83.00
2017-09-28T23:46:13.832Z,83.00
2017-09-28T23:48:41.994Z,83.20
2017-09-28T23:51:08.233Z,83.30
2017-09-28T23:53:34.507Z,83.30
2017-09-28T23:56:01.666Z,83.60
2017-09-28T23:58:27.927Z,83.60
